Time;durP1;ratioP1;P1;durP2;ratioP2;P2;SDS_P1;SDS_P2;PMS_P1;PMS_P2;Temp;Humidity;BMP_temperature;BMP_pressure;BME280_temperature;BME280_humidity;BME280_pressure;Samples;Min_cycle;Max_cycle;Signal;HPM_P1;HPM_P2
2022/04/13 00:00:00;;;;;;;8.82;2.95;;;;;;;15.65;63.83;101036.59;5255752;28;20036;-68
2022/04/13 00:02:31;;;;;;;6.83;3.07;;;;;;;15.61;64.16;101033.47;5259975;28;20029;-68
2022/04/13 00:05:03;;;;;;;8.63;2.70;;;;;;;15.57;64.15;101037.41;5258978;28;20311;-68
2022/04/13 00:07:35;;;;;;;5.97;2.72;;;;;;;15.53;64.75;101033.38;5255577;28;20028;-68
2022/04/13 00:10:07;;;;;;;7.03;3.03;;;;;;;15.40;66.80;101038.28;5255031;28;20479;-68
2022/04/13 00:12:39;;;;;;;8.27;2.88;;;;;;;15.32;67.70;101039.91;5257984;28;20081;-69
2022/04/13 00:15:10;;;;;;;8.35;2.55;;;;;;;15.35;66.89;101041.41;5257195;28;20367;-68
2022/04/13 00:17:42;;;;;;;7.32;2.50;;;;;;;15.26;67.69;101043.16;5258219;28;20025;-70
2022/04/13 00:20:13;;;;;;;10.43;3.13;;;;;;;15.21;68.88;101048.06;5257170;28;20202;-68
2022/04/13 00:22:44;;;;;;;6.85;2.88;;;;;;;15.18;69.28;101048.38;5259996;28;20017;-69
2022/04/13 00:25:16;;;;;;;6.97;2.75;;;;;;;15.11;69.02;101039.41;5255177;28;20028;-69
2022/04/13 00:27:47;;;;;;;6.53;2.70;;;;;;;15.15;68.59;101046.03;5257295;28;20028;-68
2022/04/13 00:30:18;;;;;;;9.00;3.20;;;;;;;15.08;69.10;101042.41;5261344;28;20073;-68
2022/04/13 00:32:49;;;;;;;7.70;2.83;;;;;;;15.12;69.24;101053.47;5255909;28;20086;-68
2022/04/13 00:35:21;;;;;;;9.30;3.15;;;;;;;15.10;69.13;101056.25;5258517;28;20275;-68
2022/04/13 00:37:52;;;;;;;8.63;3.22;;;;;;;15.09;69.21;101054.59;5258603;28;20028;-69
2022/04/13 00:40:24;;;;;;;6.65;3.00;;;;;;;15.02;69.94;101054.38;5255851;28;20028;-68
2022/04/13 00:42:55;;;;;;;10.35;3.63;;;;;;;15.02;69.79;101064.94;5253920;28;20114;-68
2022/04/13 00:45:26;;;;;;;10.00;3.30;;;;;;;15.01;70.13;101062.47;5260345;28;21059;-69
2022/04/13 00:48:00;;;;;;;9.68;3.20;;;;;;;14.98;70.48;101068.84;5258681;28;20692;-68
2022/04/13 00:50:31;;;;;;;11.25;3.22;;;;;;;14.93;71.03;101071.13;5255146;28;20020;-68
2022/04/13 00:53:05;;;;;;;7.78;3.47;;;;;;;14.94;71.25;101070.16;5255737;28;20036;-69
2022/04/13 00:55:40;;;;;;;8.57;2.97;;;;;;;14.88;71.87;101076.03;5258265;28;20449;-68
2022/04/13 00:58:15;;;;;;;9.13;3.30;;;;;;;14.86;71.97;101079.81;5258085;28;20112;-70
2022/04/13 01:00:48;;;;;;;5.93;3.13;;;;;;;14.79;72.16;101080.41;5257682;28;20106;-70
2022/04/13 01:03:23;;;;;;;8.93;3.40;;;;;;;14.81;72.64;101090.81;5257170;28;20048;-70
2022/04/13 01:05:54;;;;;;;13.77;3.33;;;;;;;14.78;72.89;101091.13;5258595;28;20499;-69
2022/04/13 01:08:27;;;;;;;6.82;3.00;;;;;;;14.75;73.13;101089.59;5254792;28;20548;-69
2022/04/13 01:11:00;;;;;;;7.65;3.70;;;;;;;14.73;73.64;101096.00;5257658;28;20482;-68
2022/04/13 01:13:32;;;;;;;9.02;3.03;;;;;;;14.73;74.07;101094.19;5258971;28;20167;-68
2022/04/13 01:16:05;;;;;;;8.38;3.30;;;;;;;14.68;74.96;101100.91;5254688;28;20029;-70
2022/04/13 01:18:36;;;;;;;7.35;3.40;;;;;;;14.67;75.43;101105.38;5256999;28;20024;-68
2022/04/13 01:21:12;;;;;;;7.88;3.50;;;;;;;14.65;76.21;101109.94;5258924;28;20252;-69
2022/04/13 01:23:44;;;;;;;8.43;3.95;;;;;;;14.57;76.99;101108.06;5255300;28;20057;-70
2022/04/13 01:26:15;;;;;;;8.32;3.88;;;;;;;14.58;78.03;101119.44;5257340;28;20096;-69
2022/04/13 01:28:47;;;;;;;9.60;4.15;;;;;;;14.55;79.02;101111.84;5256072;28;20494;-70
2022/04/13 01:31:18;;;;;;;8.90;4.72;;;;;;;14.55;79.95;101115.31;5256542;28;20020;-68
2022/04/13 01:33:49;;;;;;;9.57;4.60;;;;;;;14.53;80.23;101126.97;5255626;28;20462;-68
2022/04/13 01:36:21;;;;;;;7.70;4.40;;;;;;;14.55;80.89;101125.03;5255281;28;20086;-69
2022/04/13 01:38:52;;;;;;;11.55;5.55;;;;;;;14.49;82.12;101126.44;5256659;28;20029;-69
2022/04/13 01:41:23;;;;;;;12.48;4.65;;;;;;;14.48;82.90;101132.66;5257263;28;20747;-69
2022/04/13 01:43:55;;;;;;;9.63;4.95;;;;;;;14.46;84.64;101139.88;5256339;28;20052;-69
2022/04/13 01:46:27;;;;;;;11.97;5.40;;;;;;;14.45;85.17;101146.13;5259817;28;20083;-69
2022/04/13 01:48:59;;;;;;;13.10;4.97;;;;;;;14.45;86.23;101147.94;5262173;28;20269;-69
2022/04/13 01:51:30;;;;;;;9.35;4.80;;;;;;;14.41;86.52;101147.41;5259444;28;20033;-68
2022/04/13 01:54:01;;;;;;;11.02;5.78;;;;;;;14.38;87.07;101149.50;5260279;28;20023;-69
2022/04/13 01:56:33;;;;;;;9.30;4.90;;;;;;;14.38;87.76;101149.50;5262367;28;20032;-68
2022/04/13 01:59:04;;;;;;;9.98;5.60;;;;;;;14.36;87.92;101154.94;5262608;28;20506;-69
2022/04/13 02:01:45;;;;;;;16.58;5.30;;;;;;;14.43;87.73;101148.06;5257921;28;20486;-69
2022/04/13 02:04:20;;;;;;;8.75;4.65;;;;;;;14.37;88.77;101153.94;5262308;28;20037;-69
2022/04/13 02:06:52;;;;;;;11.45;5.45;;;;;;;14.25;88.76;101155.97;5259241;28;20027;-68
2022/04/13 02:09:23;;;;;;;10.02;5.30;;;;;;;14.28;88.73;101157.44;5259030;28;20028;-68
2022/04/13 02:11:55;;;;;;;12.10;5.20;;;;;;;14.27;89.50;101164.53;5260851;28;20394;-69
2022/04/13 02:14:26;;;;;;;11.57;5.22;;;;;;;14.23;89.76;101159.72;5262373;28;20047;-69
2022/04/13 02:16:57;;;;;;;10.73;4.95;;;;;;;14.23;90.24;101165.81;5260029;28;20033;-68
2022/04/13 02:19:29;;;;;;;8.80;4.80;;;;;;;14.19;91.13;101166.25;5260702;28;20106;-68
2022/04/13 02:22:01;;;;;;;7.78;5.07;;;;;;;14.16;91.94;101166.53;5260900;28;20071;-68
2022/04/13 02:24:34;;;;;;;13.55;5.55;;;;;;;14.15;91.78;101176.25;5260143;28;20045;-68
2022/04/13 02:27:07;;;;;;;7.75;5.18;;;;;;;14.13;92.21;101172.94;5257242;28;20029;-68
2022/04/13 02:29:39;;;;;;;12.95;5.65;;;;;;;14.13;92.10;101178.22;5259202;28;20021;-68
2022/04/13 02:32:11;;;;;;;13.13;5.30;;;;;;;14.08;92.50;101167.25;5262476;28;20043;-68
2022/04/13 02:34:44;;;;;;;11.88;5.60;;;;;;;14.07;92.74;101176.16;5262407;28;20024;-70
2022/04/13 02:37:16;;;;;;;10.95;5.63;;;;;;;14.02;90.98;101167.84;5260624;28;20036;-69
2022/04/13 02:39:47;;;;;;;11.98;5.15;;;;;;;13.99;93.09;101174.22;5261466;28;20471;-68
2022/04/13 02:42:19;;;;;;;14.30;5.38;;;;;;;13.94;93.83;101181.75;5261869;28;20371;-68
2022/04/13 02:44:50;;;;;;;9.43;5.63;;;;;;;13.91;93.25;101178.56;5257709;28;20394;-69
2022/04/13 02:47:21;;;;;;;9.43;5.03;;;;;;;13.85;92.14;101180.78;5260272;28;20055;-68
2022/04/13 02:49:54;;;;;;;10.98;5.80;;;;;;;13.82;94.59;101188.13;5259266;28;20020;-68
2022/04/13 02:52:28;;;;;;;9.38;5.63;;;;;;;13.73;93.50;101192.47;5262177;28;20139;-69
2022/04/13 02:55:00;;;;;;;9.18;5.18;;;;;;;13.69;96.55;101198.97;5259266;28;20389;-68
2022/04/13 02:57:31;;;;;;;8.65;4.97;;;;;;;13.63;96.85;101194.28;5257671;28;20033;-68
2022/04/13 03:00:03;;;;;;;11.65;5.78;;;;;;;13.54;95.09;101180.16;5260759;28;20044;-68
2022/04/13 03:02:34;;;;;;;12.00;6.20;;;;;;;13.57;94.98;101194.84;5260195;28;20044;-70
2022/04/13 03:05:06;;;;;;;13.23;5.78;;;;;;;13.48;95.75;101191.25;5259070;28;20586;-69
2022/04/13 03:07:37;;;;;;;7.55;5.28;;;;;;;13.42;97.08;101199.72;5258751;28;20029;-69
2022/04/13 03:10:09;;;;;;;10.55;5.28;;;;;;;13.38;98.59;101198.34;5260042;28;20016;-69
2022/04/13 03:12:42;;;;;;;8.75;6.03;;;;;;;13.33;97.96;101190.00;5259162;28;20024;-68
2022/04/13 03:15:14;;;;;;;12.45;5.47;;;;;;;13.28;99.68;101190.44;5262679;28;20025;-70
2022/04/13 03:17:45;;;;;;;9.30;5.22;;;;;;;13.20;99.80;101184.19;5256427;28;20032;-69
2022/04/13 03:20:17;;;;;;;10.40;5.18;;;;;;;13.23;99.03;101192.66;5260960;28;20115;-68
2022/04/13 03:22:50;;;;;;;8.00;5.10;;;;;;;13.14;99.50;101181.16;5256897;28;20842;-70
2022/04/13 03:25:21;;;;;;;11.25;5.80;;;;;;;13.08;98.32;101186.13;5260594;28;20527;-70
2022/04/13 03:27:52;;;;;;;7.90;5.35;;;;;;;13.09;98.64;101193.88;5254955;28;20024;-68
2022/04/13 03:30:24;;;;;;;10.63;5.43;;;;;;;12.99;99.94;101189.56;5260626;28;20084;-68
2022/04/13 03:32:55;;;;;;;8.38;5.25;;;;;;;12.96;100.00;101188.06;5260788;28;20033;-69
2022/04/13 03:35:26;;;;;;;11.07;5.70;;;;;;;12.93;100.00;101195.38;5261097;28;20409;-69
2022/04/13 03:37:58;;;;;;;10.70;5.70;;;;;;;12.87;97.29;101194.13;5259544;28;20469;-69
2022/04/13 03:40:29;;;;;;;9.23;5.40;;;;;;;12.82;100.00;101194.53;5260127;28;20463;-68
2022/04/13 03:43:00;;;;;;;8.57;5.55;;;;;;;12.73;100.00;101202.38;5255124;28;20497;-68
2022/04/13 03:45:31;;;;;;;6.80;5.20;;;;;;;12.69;100.00;101211.50;5258605;28;20036;-68
2022/04/13 03:48:03;;;;;;;9.05;5.07;;;;;;;12.61;100.00;101199.91;5258248;28;20029;-70
2022/04/13 03:50:34;;;;;;;8.30;5.50;;;;;;;12.57;100.00;101209.00;5258759;28;20103;-69
2022/04/13 03:53:06;;;;;;;12.05;6.05;;;;;;;12.52;100.00;101205.94;5259362;28;20549;-69
2022/04/13 03:55:37;;;;;;;11.65;5.45;;;;;;;12.50;100.00;101207.03;5258810;28;20448;-67
2022/04/13 03:58:08;;;;;;;8.43;5.47;;;;;;;12.46;100.00;101205.66;5258827;28;20489;-68
2022/04/13 04:00:39;;;;;;;12.75;5.85;;;;;;;12.45;100.00;101211.88;5257065;28;20021;-67
2022/04/13 04:03:11;;;;;;;11.48;5.97;;;;;;;12.41;100.00;101217.38;5255636;28;20052;-71
2022/04/13 04:05:42;;;;;;;9.75;5.65;;;;;;;12.35;100.00;101223.19;5258772;28;20187;-70
2022/04/13 04:08:14;;;;;;;10.10;5.97;;;;;;;12.29;100.00;101228.13;5254767;28;20118;-67
2022/04/13 04:10:45;;;;;;;10.35;6.22;;;;;;;12.25;100.00;101229.38;5257943;28;20276;-69
2022/04/13 04:13:16;;;;;;;9.98;6.53;;;;;;;12.26;100.00;101234.47;5258166;28;20040;-67
2022/04/13 04:15:47;;;;;;;11.93;6.00;;;;;;;12.24;100.00;101238.22;5258969;28;20137;-67
2022/04/13 04:18:19;;;;;;;13.45;6.55;;;;;;;12.25;100.00;101234.63;5257377;28;20036;-68
2022/04/13 04:20:50;;;;;;;9.32;6.45;;;;;;;12.23;100.00;101239.16;5259202;28;20024;-68
2022/04/13 04:23:21;;;;;;;11.68;7.22;;;;;;;12.23;100.00;101237.34;5256686;28;20118;-68
2022/04/13 04:25:53;;;;;;;14.23;7.50;;;;;;;12.28;100.00;101237.81;5256296;28;20494;-67
2022/04/13 04:28:24;;;;;;;10.02;7.00;;;;;;;12.29;100.00;101244.72;5259055;28;20103;-67
2022/04/13 04:30:55;;;;;;;11.75;7.28;;;;;;;12.36;100.00;101237.97;5259514;28;20020;-72
2022/04/13 04:33:26;;;;;;;11.50;8.77;;;;;;;12.43;100.00;101245.34;5255759;28;20032;-70
2022/04/13 04:35:58;;;;;;;12.90;8.63;;;;;;;12.41;100.00;101237.59;5257021;28;20028;-67
2022/04/13 04:38:32;;;;;;;11.65;8.20;;;;;;;12.42;100.00;101252.38;5259751;28;20032;-67
2022/04/13 04:41:03;;;;;;;13.82;9.18;;;;;;;12.45;100.00;101260.00;5257813;28;20029;-67
2022/04/13 04:43:34;;;;;;;13.73;8.93;;;;;;;12.49;100.00;101268.44;5258102;28;20180;-68
2022/04/13 04:46:06;;;;;;;13.20;8.45;;;;;;;12.50;100.00;101259.59;5257247;28;20029;-67
2022/04/13 04:48:39;;;;;;;14.50;9.15;;;;;;;12.51;100.00;101266.53;5257833;28;20032;-68
2022/04/13 04:51:10;;;;;;;;;;;;;;;13.03;100.00;101269.84;5256120;28;20027;-70
2022/04/13 04:53:41;;;;;;;12.77;8.87;;;;;;;12.54;100.00;101271.50;5257616;28;19912;-71
2022/04/13 04:56:14;;;;;;;15.07;9.57;;;;;;;12.52;100.00;101278.72;5258030;28;20182;-70
2022/04/13 04:58:45;;;;;;;13.70;9.40;;;;;;;12.51;100.00;101282.31;5256397;28;20048;-67
2022/04/13 05:01:17;;;;;;;14.82;9.85;;;;;;;12.50;100.00;101285.88;5258253;28;20082;-67
2022/04/13 05:03:49;;;;;;;15.93;9.60;;;;;;;12.50;100.00;101285.88;5256794;28;20401;-68
2022/04/13 05:06:23;;;;;;;18.92;10.57;;;;;;;12.47;100.00;101292.25;5257147;28;20037;-67
2022/04/13 05:08:55;;;;;;;15.02;10.60;;;;;;;12.47;100.00;101292.25;5255343;28;20481;-67
2022/04/13 05:11:27;;;;;;;14.63;10.20;;;;;;;12.52;100.00;101290.06;5258560;28;20464;-68
2022/04/13 05:13:58;;;;;;;14.60;10.93;;;;;;;12.54;100.00;101289.91;5256681;28;20028;-67
2022/04/13 05:16:29;;;;;;;14.15;11.35;;;;;;;12.51;100.00;101292.81;5260115;28;20035;-67
2022/04/13 05:19:00;;;;;;;13.32;10.27;;;;;;;12.54;100.00;101297.78;5258234;28;20044;-68
2022/04/13 05:21:32;;;;;;;17.70;12.13;;;;;;;12.59;100.00;101306.97;5260293;28;20040;-68
2022/04/13 05:24:03;;;;;;;17.00;11.85;;;;;;;12.63;100.00;101303.09;5262605;28;20032;-68
2022/04/13 05:26:35;;;;;;;16.02;11.63;;;;;;;12.67;100.00;101311.56;5258122;28;20036;-69
2022/04/13 05:29:07;;;;;;;18.88;12.40;;;;;;;12.70;100.00;101319.19;5263146;28;20024;-68
2022/04/13 05:31:38;;;;;;;18.38;11.68;;;;;;;12.75;100.00;101321.41;5262720;28;20024;-69
2022/04/13 05:34:09;;;;;;;16.55;12.70;;;;;;;12.79;100.00;101322.81;5259677;28;20058;-68
2022/04/13 05:36:40;;;;;;;18.63;12.55;;;;;;;12.84;100.00;101331.97;5260745;28;20025;-69
2022/04/13 05:39:12;;;;;;;18.05;12.15;;;;;;;12.86;100.00;101330.03;5263207;28;20111;-70
2022/04/13 05:41:43;;;;;;;19.13;13.13;;;;;;;12.91;100.00;101327.81;5258731;28;20169;-69
2022/04/13 05:44:14;;;;;;;16.92;12.02;;;;;;;12.96;100.00;101343.22;5261401;28;20494;-69
2022/04/13 05:46:46;;;;;;;21.73;13.70;;;;;;;13.00;100.00;101339.38;5261909;28;20074;-68
2022/04/13 05:49:17;;;;;;;19.17;13.80;;;;;;;13.05;100.00;101341.59;5263885;28;20381;-68
2022/04/13 05:51:48;;;;;;;19.15;13.48;;;;;;;13.10;100.00;101345.47;5259924;28;20020;-69
2022/04/13 05:54:19;;;;;;;20.90;14.50;;;;;;;13.15;100.00;101334.56;5261706;28;20029;-69
2022/04/13 05:56:51;;;;;;;19.15;13.68;;;;;;;13.22;100.00;101348.84;5260127;28;20021;-69
2022/04/13 05:59:22;;;;;;;18.02;13.77;;;;;;;13.29;100.00;101349.16;5260412;28;20102;-68
2022/04/13 06:01:53;;;;;;;20.88;13.93;;;;;;;13.31;100.00;101353.31;5260009;28;20031;-68
2022/04/13 06:04:25;;;;;;;19.00;14.55;;;;;;;13.45;100.00;101351.25;5262598;28;20017;-69
2022/04/13 06:06:59;;;;;;;19.88;15.35;;;;;;;13.50;100.00;101349.06;5258964;28;20466;-69
2022/04/13 06:09:30;;;;;;;23.05;14.63;;;;;;;13.55;100.00;101347.66;5261761;28;20088;-70
2022/04/13 06:12:02;;;;;;;19.70;14.73;;;;;;;13.59;100.00;101353.50;5261394;28;20562;-68
2022/04/13 06:14:33;;;;;;;19.60;13.90;;;;;;;13.65;100.00;101363.47;5260071;28;20036;-68
2022/04/13 06:17:04;;;;;;;20.00;14.30;;;;;;;13.73;100.00;101368.06;5255407;28;20183;-69
2022/04/13 06:19:35;;;;;;;18.33;14.73;;;;;;;13.78;100.00;101358.75;5260941;28;20020;-70
2022/04/13 06:22:07;;;;;;;23.08;14.77;;;;;;;13.80;100.00;101369.19;5259559;28;20115;-69
2022/04/13 06:24:38;;;;;;;18.17;14.57;;;;;;;13.88;100.00;101378.03;5258640;28;20397;-69
2022/04/13 06:27:09;;;;;;;20.23;16.33;;;;;;;13.88;100.00;101377.22;5260417;28;20813;-70
2022/04/13 06:29:41;;;;;;;19.98;15.00;;;;;;;13.89;100.00;101376.22;5259997;28;20417;-69
2022/04/13 06:32:15;;;;;;;19.98;15.18;;;;;;;13.93;100.00;101374.97;5258287;28;20435;-70
2022/04/13 06:34:46;;;;;;;20.63;15.35;;;;;;;13.88;100.00;101369.31;5257837;28;20414;-69
2022/04/13 06:37:17;;;;;;;22.95;16.00;;;;;;;13.92;100.00;101372.50;5252078;28;20037;-70
2022/04/13 06:39:48;;;;;;;20.63;14.70;;;;;;;13.94;100.00;101374.03;5255090;28;20060;-70
2022/04/13 06:42:22;;;;;;;24.52;15.52;;;;;;;13.96;100.00;101381.78;5256082;28;20036;-69
2022/04/13 06:44:53;;;;;;;;;;;;;;;14.44;100.00;101384.38;5258684;28;20040;-68
2022/04/13 06:47:25;;;;;;;18.85;14.98;;;;;;;14.05;100.00;101392.34;5254182;28;19943;-69
2022/04/13 06:49:56;;;;;;;18.48;14.90;;;;;;;14.08;100.00;101397.31;5254450;28;20139;-69
2022/04/13 06:52:32;;;;;;;22.90;15.45;;;;;;;14.22;100.00;101403.97;5249798;28;20713;-70
2022/04/13 06:55:04;;;;;;;20.00;15.25;;;;;;;14.23;100.00;101416.16;5255913;28;20513;-68
2022/04/13 06:57:39;;;;;;;21.77;15.63;;;;;;;14.31;100.00;101424.19;5255177;28;20116;-69
2022/04/13 07:00:12;;;;;;;20.83;16.23;;;;;;;14.40;100.00;101419.06;5255567;28;20044;-69
2022/04/13 07:02:43;;;;;;;21.15;16.33;;;;;;;14.54;100.00;101429.19;5257665;28;20044;-69
2022/04/13 07:05:15;;;;;;;21.00;15.75;;;;;;;14.58;100.00;101430.56;5255744;28;20024;-69
2022/04/13 07:07:46;;;;;;;23.52;16.00;;;;;;;14.62;100.00;101431.94;5258355;28;20471;-70
2022/04/13 07:10:17;;;;;;;22.42;15.73;;;;;;;14.63;100.00;101428.34;5259191;28;20498;-69
2022/04/13 07:12:48;;;;;;;19.65;15.43;;;;;;;14.63;100.00;101433.63;5260295;28;20363;-68
2022/04/13 07:15:20;;;;;;;20.30;15.45;;;;;;;14.71;100.00;101440.84;5260909;28;20094;-70
2022/04/13 07:17:51;;;;;;;20.73;15.35;;;;;;;14.77;100.00;101441.09;5262387;28;20672;-69
2022/04/13 07:20:22;;;;;;;19.15;14.68;;;;;;;14.88;100.00;101448.00;5259527;28;20473;-68
2022/04/13 07:22:54;;;;;;;21.63;15.35;;;;;;;14.92;100.00;101456.44;5258313;28;20036;-70
2022/04/13 07:25:26;;;;;;;22.13;15.82;;;;;;;15.04;100.00;101461.44;5259099;28;20626;-69
2022/04/13 07:27:57;;;;;;;18.27;14.52;;;;;;;15.03;100.00;101461.56;5258639;28;20107;-70
2022/04/13 07:30:29;;;;;;;18.90;14.60;;;;;;;15.11;100.00;101460.84;5256450;28;20446;-68
2022/04/13 07:33:01;;;;;;;22.73;15.25;;;;;;;15.20;100.00;101465.25;5255620;28;20033;-68
2022/04/13 07:35:32;;;;;;;21.92;16.02;;;;;;;15.25;100.00;101463.00;5254528;28;20279;-69
2022/04/13 07:38:04;;;;;;;19.58;14.32;;;;;;;15.33;100.00;101474.50;5258001;28;20098;-70
2022/04/13 07:40:35;;;;;;;20.50;14.85;;;;;;;15.31;100.00;101470.34;5258342;28;20024;-69
2022/04/13 07:43:07;;;;;;;20.55;15.00;;;;;;;15.36;100.00;101467.28;5258184;28;20037;-69
2022/04/13 07:45:39;;;;;;;21.00;15.25;;;;;;;15.33;100.00;101473.66;5259418;28;20031;-69
2022/04/13 07:48:10;;;;;;;20.95;14.55;;;;;;;15.38;100.00;101474.09;5260593;28;20020;-69
2022/04/13 07:50:42;;;;;;;20.77;13.82;;;;;;;15.41;100.00;101470.28;5255530;28;20024;-68
2022/04/13 07:53:13;;;;;;;22.70;14.43;;;;;;;15.42;100.00;101471.94;5255827;28;20028;-72
2022/04/13 07:55:45;;;;;;;20.08;14.93;;;;;;;15.47;100.00;101478.47;5259920;28;20235;-69
2022/04/13 07:58:16;;;;;;;18.20;14.55;;;;;;;15.48;100.00;101476.66;5257391;28;20024;-69
2022/04/13 08:00:48;;;;;;;19.30;13.65;;;;;;;15.62;100.00;101478.00;5254742;28;20043;-68
2022/04/13 08:03:19;;;;;;;20.80;14.43;;;;;;;15.87;100.00;101479.94;5258304;28;20685;-69
2022/04/13 08:05:50;;;;;;;22.52;15.45;;;;;;;15.94;100.00;101482.81;5258321;28;20033;-68
2022/04/13 08:08:21;;;;;;;17.45;14.07;;;;;;;16.03;100.00;101488.06;5257347;28;20031;-70
2022/04/13 08:10:53;;;;;;;17.88;13.20;;;;;;;16.10;100.00;101492.72;5257962;28;20017;-68
2022/04/13 08:13:24;;;;;;;17.50;13.13;;;;;;;16.22;100.00;101495.00;5255533;28;20032;-69
2022/04/13 08:15:56;;;;;;;21.48;13.52;;;;;;;16.42;100.00;101486.91;5256469;28;20036;-69
2022/04/13 08:18:27;;;;;;;16.90;11.65;;;;;;;16.64;100.00;101491.72;5255229;28;20464;-69
2022/04/13 08:20:59;;;;;;;18.05;11.50;;;;;;;16.77;99.92;101493.97;5258110;28;20111;-69
2022/04/13 08:23:30;;;;;;;17.95;11.55;;;;;;;16.77;97.18;101493.97;5258595;28;20031;-69
2022/04/13 08:26:01;;;;;;;16.15;11.10;;;;;;;16.82;96.99;101497.00;5255167;28;20131;-70
2022/04/13 08:28:33;;;;;;;15.30;11.15;;;;;;;16.84;97.35;101502.16;5259767;28;20032;-69
2022/04/13 08:31:05;;;;;;;16.40;10.18;;;;;;;16.92;97.37;101508.31;5254829;28;20028;-71
2022/04/13 08:33:36;;;;;;;14.98;9.82;;;;;;;16.82;94.53;101496.16;5251617;28;20394;-71
2022/04/13 08:36:07;;;;;;;17.42;9.95;;;;;;;16.89;95.53;101505.97;5256179;28;20021;-69
2022/04/13 08:38:39;;;;;;;16.23;10.48;;;;;;;16.90;95.54;101505.00;5247792;28;20025;-69
2022/04/13 08:41:15;;;;;;;14.77;9.70;;;;;;;17.02;94.40;101502.94;5258194;28;20027;-69
2022/04/13 08:44:01;;;;;;;12.95;9.02;;;;;;;17.00;96.03;101512.81;5259253;28;20151;-69
2022/04/13 08:46:36;;;;;;;13.57;9.77;;;;;;;16.90;95.76;101522.72;5255965;28;20034;-71
2022/04/13 08:49:09;;;;;;;16.80;10.65;;;;;;;16.94;95.19;101521.41;5252732;28;20032;-70
2022/04/13 08:51:41;;;;;;;18.75;10.32;;;;;;;17.08;95.81;101520.81;5255550;28;20742;-69
2022/04/13 08:54:20;;;;;;;14.65;10.13;;;;;;;17.36;94.18;101512.72;5257358;28;20396;-69
2022/04/13 08:56:55;;;;;;;15.98;10.75;;;;;;;17.29;94.19;101506.38;5256282;28;20028;-70
2022/04/13 08:59:38;;;;;;;14.65;10.43;;;;;;;17.43;92.55;101521.69;5256530;28;20048;-69
2022/04/13 09:02:42;;;;;;;14.60;11.03;;;;;;;17.72;92.44;101523.94;5256895;28;20052;-72
2022/04/13 09:05:40;;;;;;;16.33;11.18;;;;;;;17.93;91.54;101531.50;5221369;28;20040;-72
2022/04/13 09:08:17;;;;;;;16.65;11.32;;;;;;;17.93;90.99;101536.81;5251947;28;20554;-71
2022/04/13 09:10:53;;;;;;;14.10;10.15;;;;;;;17.90;88.40;101540.63;5257568;28;20036;-70
2022/04/13 09:13:25;;;;;;;13.55;10.60;;;;;;;17.80;87.73;101539.91;5253993;28;20506;-69
2022/04/13 09:15:57;;;;;;;14.67;10.00;;;;;;;17.82;87.48;101540.59;5250136;28;20035;-70
2022/04/13 09:18:28;;;;;;;13.40;9.85;;;;;;;17.90;86.68;101545.09;5251887;28;20033;-70
2022/04/13 09:21:00;;;;;;;14.05;10.20;;;;;;;17.96;87.14;101545.28;5251340;28;20027;-70
2022/04/13 09:23:31;;;;;;;14.07;10.18;;;;;;;17.96;86.80;101553.22;5252422;28;20858;-69
2022/04/13 09:26:04;;;;;;;15.30;9.27;;;;;;;17.98;86.92;101556.53;5256114;28;20490;-69
2022/04/13 09:28:37;;;;;;;15.60;9.77;;;;;;;18.01;85.47;101552.75;5255431;28;20053;-69
2022/04/13 09:31:08;;;;;;;14.35;10.57;;;;;;;17.96;86.95;101557.72;5255248;28;20421;-70
2022/04/13 09:33:40;;;;;;;16.13;9.57;;;;;;;17.96;87.05;101558.53;5254192;28;20029;-69
2022/04/13 09:36:11;;;;;;;16.05;9.82;;;;;;;17.97;87.07;101573.44;5259369;28;20025;-70
2022/04/13 09:38:42;;;;;;;14.55;9.80;;;;;;;17.91;86.38;101566.13;5256416;28;20064;-69
2022/04/13 09:41:14;;;;;;;15.25;10.02;;;;;;;17.99;86.91;101571.47;5252296;28;20036;-69
2022/04/13 09:43:55;;;;;;;13.30;9.63;;;;;;;18.08;86.95;101567.03;5253141;28;20059;-69
2022/04/13 09:46:30;;;;;;;17.85;10.25;;;;;;;18.05;87.57;101577.94;5253299;28;20032;-70
2022/04/13 09:49:08;;;;;;;19.05;12.35;;;;;;;18.05;86.97;101572.63;5251717;28;20449;-69
2022/04/13 09:51:42;;;;;;;16.42;11.75;;;;;;;17.96;86.37;101574.44;5256979;28;20024;-70
2022/04/13 09:54:14;;;;;;;14.55;11.20;;;;;;;17.90;86.74;101571.59;5253756;28;20301;-71
2022/04/13 09:56:47;;;;;;;14.23;11.18;;;;;;;17.92;86.51;101578.41;5253358;28;20051;-70
2022/04/13 09:59:29;;;;;;;16.73;11.35;;;;;;;18.06;86.63;101579.59;5252969;28;20044;-69
2022/04/13 10:02:00;;;;;;;13.73;10.85;;;;;;;17.96;86.57;101578.91;5258763;28;20420;-70
2022/04/13 10:04:32;;;;;;;14.80;12.33;;;;;;;17.96;86.93;101576.28;5252172;28;20094;-69
2022/04/13 10:07:29;;;;;;;15.38;12.43;;;;;;;18.16;86.65;101584.78;5252686;28;20025;-69
2022/04/13 10:10:01;;;;;;;16.02;11.45;;;;;;;17.85;87.35;101577.38;5255417;28;20041;-72
2022/04/13 10:12:48;;;;;;;15.83;12.00;;;;;;;18.01;86.84;101575.78;5257953;28;20055;-71
2022/04/13 10:15:19;;;;;;;16.17;12.00;;;;;;;17.76;87.64;101578.31;5258084;28;20029;-70
2022/04/13 10:17:57;;;;;;;13.93;11.32;;;;;;;17.81;88.43;101585.81;5259174;28;20028;-71
2022/04/13 10:20:41;;;;;;;15.55;11.13;;;;;;;17.78;89.77;101580.84;5260082;28;20427;-71
2022/04/13 10:23:14;;;;;;;14.27;10.90;;;;;;;17.59;90.07;101576.56;5260626;28;20059;-69
2022/04/13 10:25:45;;;;;;;;;;;;;;;18.20;86.58;101586.09;5257113;28;20032;-70
2022/04/13 10:28:21;;;;;;;17.58;10.98;;;;;;;17.69;88.70;101580.78;5260775;28;20364;-71
2022/04/13 10:30:52;;;;;;;17.77;11.77;;;;;;;17.58;90.31;101588.13;5262883;28;20096;-69
2022/04/13 10:33:24;;;;;;;19.27;12.23;;;;;;;17.64;90.16;101582.22;5258104;28;20037;-68
2022/04/13 10:35:56;;;;;;;15.23;11.38;;;;;;;17.52;89.31;101593.09;5261939;28;20025;-71
2022/04/13 10:38:27;;;;;;;17.10;12.05;;;;;;;17.51;90.58;101596.72;5257585;28;20398;-69
2022/04/13 10:40:59;;;;;;;16.13;12.00;;;;;;;17.52;90.87;101600.22;5258307;28;20024;-69
2022/04/13 10:43:31;;;;;;;18.17;13.63;;;;;;;17.47;90.99;101600.69;5258696;28;20036;-68
2022/04/13 10:46:02;;;;;;;14.18;12.68;;;;;;;17.52;92.79;101602.84;5260228;28;20548;-68
2022/04/13 10:48:40;;;;;;;17.30;13.43;;;;;;;17.60;91.35;101604.72;5255364;28;20036;-69
2022/04/13 10:51:16;;;;;;;19.13;13.98;;;;;;;17.57;93.52;101600.56;5256667;28;20024;-70
2022/04/13 10:54:03;;;;;;;20.02;14.75;;;;;;;17.81;93.88;101602.56;5255381;28;20024;-69
2022/04/13 10:56:37;;;;;;;19.27;16.17;;;;;;;17.49;97.48;101616.41;5256614;28;20074;-69
2022/04/13 10:59:30;;;;;;;19.98;16.17;;;;;;;17.64;96.62;101620.13;5255214;28;20079;-69
2022/04/13 11:02:26;;;;;;;22.00;17.88;;;;;;;17.56;97.38;101628.06;5258228;28;20035;-68
2022/04/13 11:04:58;;;;;;;22.58;20.17;;;;;;;17.21;97.51;101627.16;5256175;28;20382;-68
2022/04/13 11:07:31;;;;;;;27.80;19.73;;;;;;;17.24;98.22;101620.75;5262416;28;20031;-68
2022/04/13 11:10:03;;;;;;;22.58;19.05;;;;;;;17.17;99.02;101630.28;5261366;28;20114;-68
2022/04/13 11:12:37;;;;;;;19.27;17.40;;;;;;;17.09;96.83;101628.41;5259987;28;20291;-68
2022/04/13 11:15:08;;;;;;;20.80;18.52;;;;;;;17.00;97.80;101619.53;5256687;28;20032;-69
2022/04/13 11:17:41;;;;;;;20.08;17.83;;;;;;;17.06;96.46;101623.41;5260651;28;20493;-69
2022/04/13 11:20:20;;;;;;;;;;;;;;;17.60;92.24;101624.09;5258833;28;20295;-69
2022/04/13 11:23:20;;;;;;;20.40;18.15;;;;;;;17.33;95.38;101621.63;5257342;28;19999;-69
2022/04/13 11:25:58;;;;;;;18.92;16.92;;;;;;;17.02;96.66;101627.34;5239498;28;20040;-69
2022/04/13 11:28:34;;;;;;;20.02;17.80;;;;;;;17.00;97.77;101629.31;5259971;28;20564;-68
2022/04/13 11:31:12;;;;;;;20.63;18.35;;;;;;;17.05;99.60;101636.78;5261697;28;20016;-68
2022/04/13 11:33:51;;;;;;;22.10;18.52;;;;;;;17.12;98.57;101636.03;5254482;28;20020;-69
2022/04/13 11:36:27;;;;;;;20.88;18.13;;;;;;;17.01;99.80;101633.63;5259563;28;20047;-69